KLM92W EKCH-EHAM
Flight info
| Callsign | KLM92W |
|---|---|
| Flight time | N/A |
| Altitude | 32000 |
| Route | LANGO DCT RAXLU DCT BLUFA |
| Aircraft | B738/M-SDE2E3FGHIRWXY/LB1 |
Departure
| Time | 2026-04-24 10:55 |
|---|---|
| Airport | Copenhagen Kastrup Airport (EKCH) |
Arrival
| Time | N/A |
|---|---|
| Airport | Amsterdam Airport Schiphol (EHAM) |
| Time | Latitude | Longitude | Altitude | Speed | Heading |
|---|---|---|---|---|---|
| 2026-04-24 10:14 | 55.62699 | 12.64168 | 16 ft | 0 kts | 33° |
| 2026-04-24 10:44 | 55.62698 | 12.64167 | 16 ft | 2 kts | 33° |
| 2026-04-24 10:44 | 55.62677 | 12.64142 | 16 ft | 4 kts | 37° |
| 2026-04-24 10:45 | 55.62657 | 12.64111 | 16 ft | 4 kts | 52° |
| 2026-04-24 10:45 | 55.62647 | 12.64074 | 20 ft | 4 kts | 105° |
| 2026-04-24 10:45 | 55.62658 | 12.64038 | 18 ft | 4 kts | 122° |
| 2026-04-24 10:45 | 55.62672 | 12.63999 | 19 ft | 3 kts | 123° |
| 2026-04-24 10:46 | 55.62674 | 12.63994 | 18 ft | 0 kts | 123° |
| 2026-04-24 10:47 | 55.62673 | 12.63996 | 19 ft | 1 kts | 123° |
| 2026-04-24 10:48 | 55.62657 | 12.64038 | 18 ft | 8 kts | 123° |
| 2026-04-24 10:48 | 55.62616 | 12.64152 | 16 ft | 13 kts | 123° |
| 2026-04-24 10:48 | 55.62560 | 12.64301 | 16 ft | 15 kts | 123° |
| 2026-04-24 10:48 | 55.62501 | 12.64462 | 16 ft | 15 kts | 123° |
| 2026-04-24 10:49 | 55.62444 | 12.64617 | 16 ft | 15 kts | 123° |
| 2026-04-24 10:49 | 55.62389 | 12.64764 | 17 ft | 14 kts | 123° |
| 2026-04-24 10:49 | 55.62337 | 12.64905 | 16 ft | 13 kts | 123° |
| 2026-04-24 10:49 | 55.62286 | 12.65043 | 16 ft | 14 kts | 123° |
| 2026-04-24 10:50 | 55.62218 | 12.65174 | 16 ft | 16 kts | 172° |
| 2026-04-24 10:50 | 55.62115 | 12.65074 | 17 ft | 19 kts | 213° |
| 2026-04-24 10:50 | 55.61999 | 12.64941 | 16 ft | 21 kts | 213° |
| 2026-04-24 10:50 | 55.61868 | 12.64791 | 16 ft | 23 kts | 213° |
| 2026-04-24 10:51 | 55.61734 | 12.64636 | 16 ft | 23 kts | 212° |
| 2026-04-24 10:51 | 55.61603 | 12.64486 | 16 ft | 22 kts | 213° |
| 2026-04-24 10:51 | 55.61477 | 12.64340 | 18 ft | 21 kts | 213° |
| 2026-04-24 10:51 | 55.61355 | 12.64199 | 17 ft | 22 kts | 213° |
| 2026-04-24 10:52 | 55.61220 | 12.64044 | 16 ft | 25 kts | 213° |
| 2026-04-24 10:52 | 55.61062 | 12.63863 | 16 ft | 29 kts | 213° |
| 2026-04-24 10:52 | 55.60903 | 12.63680 | 16 ft | 26 kts | 213° |
| 2026-04-24 10:52 | 55.60754 | 12.63508 | 16 ft | 25 kts | 213° |
| 2026-04-24 10:53 | 55.60619 | 12.63340 | 17 ft | 23 kts | 220° |
| 2026-04-24 10:53 | 55.60500 | 12.63157 | 18 ft | 22 kts | 221° |
| 2026-04-24 10:53 | 55.60374 | 12.63206 | 16 ft | 22 kts | 130° |
| 2026-04-24 10:53 | 55.60383 | 12.63419 | 18 ft | 21 kts | 42° |
| 2026-04-24 10:54 | 55.60493 | 12.63589 | 17 ft | 21 kts | 41° |
| 2026-04-24 10:54 | 55.60645 | 12.63823 | 18 ft | 52 kts | 41° |
| 2026-04-24 10:54 | 55.61074 | 12.64487 | 15 ft | 112 kts | 41° |
| 2026-04-24 10:54 | 55.61789 | 12.65591 | 42 ft | 157 kts | 41° |
| 2026-04-24 10:55 | 55.62614 | 12.66872 | 632 ft | 154 kts | 39° |
| 2026-04-24 10:55 | 55.63450 | 12.68166 | 1265 ft | 161 kts | 37° |
| 2026-04-24 10:55 | 55.64307 | 12.69473 | 1872 ft | 169 kts | 36° |
| 2026-04-24 10:55 | 55.65272 | 12.70940 | 2156 ft | 196 kts | 36° |
| 2026-04-24 10:56 | 55.66364 | 12.72579 | 2387 ft | 216 kts | 36° |
| 2026-04-24 10:56 | 55.67544 | 12.74347 | 2806 ft | 226 kts | 36° |
| 2026-04-24 10:56 | 55.68759 | 12.76164 | 3168 ft | 241 kts | 36° |
| 2026-04-24 10:56 | 55.70029 | 12.78203 | 3736 ft | 253 kts | 46° |
| 2026-04-24 10:57 | 55.70763 | 12.81093 | 4529 ft | 266 kts | 76° |
| 2026-04-24 10:57 | 55.70602 | 12.84424 | 5265 ft | 282 kts | 107° |
| 2026-04-24 10:57 | 55.69442 | 12.87264 | 6013 ft | 293 kts | 141° |
| 2026-04-24 10:57 | 55.67590 | 12.88809 | 6751 ft | 297 kts | 161° |
| 2026-04-24 10:58 | 55.65606 | 12.89943 | 7427 ft | 302 kts | 161° |
| 2026-04-24 10:58 | 55.63603 | 12.91127 | 8116 ft | 305 kts | 161° |
| 2026-04-24 10:58 | 55.61520 | 12.91823 | 8775 ft | 308 kts | 185° |
| 2026-04-24 10:58 | 55.59491 | 12.90919 | 9458 ft | 305 kts | 211° |
| 2026-04-24 10:59 | 55.57812 | 12.88711 | 10098 ft | 302 kts | 230° |
| 2026-04-24 10:59 | 55.56332 | 12.85982 | 10456 ft | 317 kts | 231° |
| 2026-04-24 10:59 | 55.54767 | 12.83055 | 10618 ft | 338 kts | 231° |
| 2026-04-24 10:59 | 55.53098 | 12.79949 | 10789 ft | 357 kts | 232° |
| 2026-04-24 11:00 | 55.51607 | 12.76414 | 11237 ft | 361 kts | 241° |
| 2026-04-24 11:00 | 55.50707 | 12.73943 | 11643 ft | 363 kts | 242° |
| 2026-04-24 11:00 | 55.48903 | 12.68870 | 12526 ft | 367 kts | 242° |
| 2026-04-24 11:00 | 55.47541 | 12.65041 | 13169 ft | 370 kts | 242° |
| 2026-04-24 11:01 | 55.46162 | 12.61191 | 13833 ft | 374 kts | 242° |
| 2026-04-24 11:01 | 55.44757 | 12.57309 | 14443 ft | 377 kts | 242° |
| 2026-04-24 11:01 | 55.43357 | 12.53471 | 15133 ft | 378 kts | 242° |
| 2026-04-24 11:01 | 55.41923 | 12.49565 | 15833 ft | 380 kts | 241° |
| 2026-04-24 11:02 | 55.40482 | 12.45654 | 16508 ft | 382 kts | 241° |
| 2026-04-24 11:02 | 55.39031 | 12.41729 | 17159 ft | 384 kts | 241° |
| 2026-04-24 11:02 | 55.38063 | 12.39114 | 17590 ft | 386 kts | 241° |
| 2026-04-24 11:02 | 55.36591 | 12.35147 | 18239 ft | 389 kts | 241° |
| 2026-04-24 11:03 | 55.34607 | 12.29813 | 19024 ft | 391 kts | 241° |
| 2026-04-24 11:03 | 55.33622 | 12.27169 | 19434 ft | 391 kts | 241° |
| 2026-04-24 11:03 | 55.32128 | 12.23168 | 20036 ft | 392 kts | 241° |
| 2026-04-24 11:03 | 55.30631 | 12.19161 | 20641 ft | 393 kts | 241° |
| 2026-04-24 11:04 | 55.29130 | 12.15151 | 21212 ft | 394 kts | 241° |
| 2026-04-24 11:04 | 55.27131 | 12.09820 | 21924 ft | 396 kts | 241° |
| 2026-04-24 11:04 | 55.26106 | 12.07090 | 22298 ft | 397 kts | 242° |
| 2026-04-24 11:04 | 55.24583 | 12.03038 | 22844 ft | 399 kts | 242° |
| 2026-04-24 11:05 | 55.23053 | 11.98977 | 23379 ft | 400 kts | 242° |
| 2026-04-24 11:05 | 55.21535 | 11.94954 | 23851 ft | 402 kts | 242° |
| 2026-04-24 11:05 | 55.19987 | 11.90856 | 24242 ft | 404 kts | 241° |
| 2026-04-24 11:05 | 55.18430 | 11.86742 | 24627 ft | 407 kts | 241° |
| 2026-04-24 11:06 | 55.16863 | 11.82608 | 25019 ft | 409 kts | 241° |
| 2026-04-24 11:06 | 55.15284 | 11.78453 | 25422 ft | 411 kts | 241° |
| 2026-04-24 11:06 | 55.13699 | 11.74287 | 25812 ft | 412 kts | 241° |
| 2026-04-24 11:06 | 55.12106 | 11.70107 | 26190 ft | 414 kts | 241° |
| 2026-04-24 11:07 | 55.08894 | 11.61702 | 26923 ft | 418 kts | 241° |
| 2026-04-24 11:07 | 55.07274 | 11.57474 | 27271 ft | 420 kts | 241° |
| 2026-04-24 11:07 | 55.05648 | 11.53236 | 27667 ft | 420 kts | 241° |
| 2026-04-24 11:08 | 55.04046 | 11.49073 | 28204 ft | 417 kts | 241° |
| 2026-04-24 11:08 | 55.02436 | 11.44897 | 28775 ft | 414 kts | 241° |
| 2026-04-24 11:08 | 55.00834 | 11.40749 | 29277 ft | 412 kts | 241° |
| 2026-04-24 11:08 | 54.99234 | 11.36610 | 29705 ft | 411 kts | 241° |
| 2026-04-24 11:09 | 54.97638 | 11.32484 | 30121 ft | 411 kts | 241° |
| 2026-04-24 11:09 | 54.96043 | 11.28367 | 30520 ft | 410 kts | 241° |
| 2026-04-24 11:09 | 54.94453 | 11.24272 | 30936 ft | 407 kts | 241° |
| 2026-04-24 11:09 | 54.92868 | 11.20197 | 31328 ft | 406 kts | 241° |
| 2026-04-24 11:10 | 54.91285 | 11.16134 | 31686 ft | 406 kts | 241° |
| 2026-04-24 11:10 | 54.89724 | 11.12134 | 32029 ft | 405 kts | 241° |
| 2026-04-24 11:10 | 54.86538 | 11.03979 | 32136 ft | 410 kts | 241° |
| 2026-04-24 11:11 | 54.83349 | 10.95858 | 32125 ft | 403 kts | 241° |
| 2026-04-24 11:11 | 54.80191 | 10.87840 | 32143 ft | 403 kts | 240° |
| 2026-04-24 11:12 | 54.77020 | 10.79808 | 32122 ft | 404 kts | 240° |
| 2026-04-24 11:12 | 54.73862 | 10.71838 | 32141 ft | 405 kts | 240° |
| 2026-04-24 11:13 | 54.70666 | 10.63798 | 32145 ft | 406 kts | 240° |
| 2026-04-24 11:13 | 54.67463 | 10.55768 | 32137 ft | 406 kts | 240° |
| 2026-04-24 11:14 | 54.64250 | 10.47737 | 32137 ft | 406 kts | 240° |
| 2026-04-24 11:14 | 54.61031 | 10.39720 | 32140 ft | 406 kts | 240° |
| 2026-04-24 11:15 | 54.57832 | 10.31777 | 32141 ft | 406 kts | 240° |
| 2026-04-24 11:15 | 54.54610 | 10.23804 | 32146 ft | 405 kts | 239° |
| 2026-04-24 11:16 | 54.51389 | 10.15857 | 32154 ft | 405 kts | 239° |
| 2026-04-24 11:16 | 54.48163 | 10.07922 | 32158 ft | 404 kts | 239° |
| 2026-04-24 11:17 | 54.44956 | 10.00059 | 32159 ft | 405 kts | 239° |
| 2026-04-24 11:17 | 54.41721 | 9.92153 | 32156 ft | 405 kts | 239° |
| 2026-04-24 11:18 | 54.38481 | 9.84260 | 32154 ft | 405 kts | 239° |
| 2026-04-24 11:18 | 54.35234 | 9.76374 | 32131 ft | 405 kts | 239° |
| 2026-04-24 11:19 | 54.32006 | 9.68560 | 32153 ft | 404 kts | 239° |
| 2026-04-24 11:19 | 54.28753 | 9.60710 | 32154 ft | 404 kts | 238° |
| 2026-04-24 11:20 | 54.25493 | 9.52869 | 32159 ft | 404 kts | 238° |
| 2026-04-24 11:20 | 54.22227 | 9.45038 | 32157 ft | 404 kts | 238° |
| 2026-04-24 11:21 | 54.18954 | 9.37214 | 32150 ft | 404 kts | 238° |
| 2026-04-24 11:21 | 54.15703 | 9.29466 | 32167 ft | 404 kts | 238° |
| 2026-04-24 11:22 | 54.12424 | 9.21677 | 32155 ft | 404 kts | 238° |
| 2026-04-24 11:22 | 54.09142 | 9.13903 | 32166 ft | 404 kts | 238° |
| 2026-04-24 11:23 | 54.05854 | 9.06141 | 32180 ft | 404 kts | 238° |
| 2026-04-24 11:23 | 54.02560 | 8.98388 | 32189 ft | 404 kts | 237° |
| 2026-04-24 11:24 | 53.99284 | 8.90702 | 32200 ft | 404 kts | 237° |
| 2026-04-24 11:24 | 53.95979 | 8.82970 | 32206 ft | 404 kts | 237° |
| 2026-04-24 11:25 | 53.92670 | 8.75254 | 32189 ft | 404 kts | 237° |
| 2026-04-24 11:25 | 53.89383 | 8.67611 | 32211 ft | 404 kts | 237° |
| 2026-04-24 11:26 | 53.86072 | 8.59937 | 32220 ft | 403 kts | 236° |
| 2026-04-24 11:26 | 53.82751 | 8.52264 | 32216 ft | 404 kts | 236° |
| 2026-04-24 11:27 | 53.79430 | 8.44613 | 32214 ft | 404 kts | 236° |
| 2026-04-24 11:27 | 53.76122 | 8.37017 | 32226 ft | 403 kts | 236° |
| 2026-04-24 11:28 | 53.72793 | 8.29394 | 32231 ft | 403 kts | 236° |
| 2026-04-24 11:28 | 53.69458 | 8.21781 | 32224 ft | 403 kts | 236° |
| 2026-04-24 11:29 | 53.66122 | 8.14190 | 32243 ft | 403 kts | 236° |
| 2026-04-24 11:29 | 53.62782 | 8.06609 | 32248 ft | 403 kts | 235° |
| 2026-04-24 11:30 | 53.59460 | 7.99095 | 32256 ft | 403 kts | 235° |
| 2026-04-24 11:30 | 53.56108 | 7.91536 | 32262 ft | 403 kts | 235° |
| 2026-04-24 11:31 | 53.52755 | 7.83996 | 32265 ft | 403 kts | 235° |
| 2026-04-24 11:31 | 53.49417 | 7.76511 | 32265 ft | 403 kts | 235° |
| 2026-04-24 11:32 | 53.46057 | 7.69000 | 32264 ft | 402 kts | 234° |
| 2026-04-24 11:32 | 53.42691 | 7.61500 | 32256 ft | 402 kts | 234° |
| 2026-04-24 11:33 | 53.39338 | 7.54051 | 32243 ft | 393 kts | 234° |
| 2026-04-24 11:33 | 53.37711 | 7.50446 | 32108 ft | 384 kts | 234° |
| 2026-04-24 11:33 | 53.36116 | 7.46916 | 31877 ft | 376 kts | 234° |
| 2026-04-24 11:34 | 53.34566 | 7.43490 | 31496 ft | 373 kts | 234° |
| 2026-04-24 11:34 | 53.33008 | 7.40051 | 31148 ft | 369 kts | 234° |
| 2026-04-24 11:34 | 53.31461 | 7.36638 | 30777 ft | 367 kts | 234° |
| 2026-04-24 11:34 | 53.29925 | 7.33255 | 30410 ft | 365 kts | 234° |
| 2026-04-24 11:35 | 53.28394 | 7.29887 | 29934 ft | 364 kts | 234° |
| 2026-04-24 11:35 | 53.26871 | 7.26542 | 29589 ft | 359 kts | 234° |
| 2026-04-24 11:35 | 53.25363 | 7.23235 | 29166 ft | 357 kts | 234° |
| 2026-04-24 11:35 | 53.23886 | 7.20001 | 28796 ft | 353 kts | 234° |
| 2026-04-24 11:36 | 53.22403 | 7.16756 | 28404 ft | 350 kts | 234° |
| 2026-04-24 11:36 | 53.20930 | 7.13537 | 28028 ft | 347 kts | 234° |
| 2026-04-24 11:36 | 53.19471 | 7.10353 | 27655 ft | 345 kts | 234° |
| 2026-04-24 11:36 | 53.18017 | 7.07184 | 27284 ft | 342 kts | 234° |
| 2026-04-24 11:37 | 53.16576 | 7.04049 | 26917 ft | 340 kts | 234° |
| 2026-04-24 11:37 | 53.15139 | 7.00924 | 26551 ft | 338 kts | 234° |
| 2026-04-24 11:37 | 53.13713 | 6.97828 | 26199 ft | 336 kts | 234° |
| 2026-04-24 11:37 | 53.12296 | 6.94754 | 25838 ft | 334 kts | 234° |
| 2026-04-24 11:38 | 53.10882 | 6.91692 | 25467 ft | 333 kts | 234° |
| 2026-04-24 11:38 | 53.09490 | 6.88681 | 25121 ft | 332 kts | 234° |
| 2026-04-24 11:38 | 53.08090 | 6.85655 | 24774 ft | 330 kts | 234° |
| 2026-04-24 11:38 | 53.06689 | 6.82630 | 24415 ft | 330 kts | 234° |
| 2026-04-24 11:39 | 53.05287 | 6.79610 | 24059 ft | 329 kts | 234° |
| 2026-04-24 11:39 | 53.03893 | 6.76607 | 23660 ft | 329 kts | 234° |
| 2026-04-24 11:39 | 53.02497 | 6.73606 | 23274 ft | 327 kts | 234° |
| 2026-04-24 11:39 | 53.01111 | 6.70627 | 22905 ft | 325 kts | 234° |
| 2026-04-24 11:40 | 52.99729 | 6.67664 | 22542 ft | 323 kts | 234° |
| 2026-04-24 11:40 | 52.98376 | 6.64763 | 22196 ft | 321 kts | 234° |
| 2026-04-24 11:40 | 52.97010 | 6.61839 | 21854 ft | 321 kts | 234° |
| 2026-04-24 11:40 | 52.95640 | 6.58909 | 21511 ft | 321 kts | 234° |
| 2026-04-24 11:41 | 52.94268 | 6.55978 | 21163 ft | 324 kts | 233° |
| 2026-04-24 11:41 | 52.92867 | 6.52987 | 20831 ft | 333 kts | 234° |
| 2026-04-24 11:41 | 52.91437 | 6.49940 | 20468 ft | 336 kts | 233° |
| 2026-04-24 11:41 | 52.90006 | 6.46895 | 20114 ft | 334 kts | 233° |
| 2026-04-24 11:42 | 52.88583 | 6.43870 | 19759 ft | 332 kts | 233° |
| 2026-04-24 11:42 | 52.87187 | 6.40905 | 19411 ft | 331 kts | 234° |
| 2026-04-24 11:42 | 52.85767 | 6.37893 | 19057 ft | 330 kts | 234° |
| 2026-04-24 11:42 | 52.84358 | 6.34912 | 18705 ft | 329 kts | 234° |
| 2026-04-24 11:43 | 52.82970 | 6.31911 | 18319 ft | 328 kts | 236° |
| 2026-04-24 11:43 | 52.81657 | 6.28845 | 17947 ft | 326 kts | 237° |
| 2026-04-24 11:43 | 52.80377 | 6.25770 | 17589 ft | 323 kts | 237° |
| 2026-04-24 11:43 | 52.79111 | 6.22719 | 17253 ft | 321 kts | 238° |
| 2026-04-24 11:44 | 52.77848 | 6.19684 | 16919 ft | 319 kts | 238° |
| 2026-04-24 11:44 | 52.76590 | 6.16675 | 16587 ft | 317 kts | 238° |
| 2026-04-24 11:44 | 52.75336 | 6.13686 | 16241 ft | 316 kts | 237° |
| 2026-04-24 11:44 | 52.74102 | 6.10755 | 15922 ft | 314 kts | 237° |
| 2026-04-24 11:45 | 52.72857 | 6.07807 | 15600 ft | 313 kts | 237° |
| 2026-04-24 11:45 | 52.71613 | 6.04864 | 15269 ft | 312 kts | 238° |
| 2026-04-24 11:45 | 52.70375 | 6.01939 | 14952 ft | 310 kts | 236° |
| 2026-04-24 11:45 | 52.69142 | 5.99033 | 14624 ft | 309 kts | 237° |
| 2026-04-24 11:46 | 52.67911 | 5.96131 | 14311 ft | 309 kts | 236° |
| 2026-04-24 11:46 | 52.66681 | 5.93240 | 13968 ft | 308 kts | 236° |
| 2026-04-24 11:46 | 52.65452 | 5.90357 | 13622 ft | 307 kts | 237° |
| 2026-04-24 11:46 | 52.64225 | 5.87478 | 13273 ft | 306 kts | 236° |
| 2026-04-24 11:47 | 52.63022 | 5.84655 | 12950 ft | 305 kts | 236° |
| 2026-04-24 11:47 | 52.61805 | 5.81800 | 12624 ft | 304 kts | 236° |
| 2026-04-24 11:47 | 52.60590 | 5.78959 | 12306 ft | 303 kts | 236° |
| 2026-04-24 11:47 | 52.59380 | 5.76134 | 11984 ft | 302 kts | 236° |
| 2026-04-24 11:48 | 52.58175 | 5.73318 | 11675 ft | 301 kts | 236° |
| 2026-04-24 11:48 | 52.56970 | 5.70507 | 11356 ft | 301 kts | 236° |
| 2026-04-24 11:48 | 52.55766 | 5.67703 | 11039 ft | 300 kts | 237° |
| 2026-04-24 11:48 | 52.54562 | 5.64899 | 10731 ft | 300 kts | 236° |
| 2026-04-24 11:49 | 52.53364 | 5.62119 | 10567 ft | 294 kts | 237° |
| 2026-04-24 11:49 | 52.52197 | 5.59412 | 10446 ft | 287 kts | 236° |
| 2026-04-24 11:49 | 52.51088 | 5.56779 | 10301 ft | 281 kts | 239° |
| 2026-04-24 11:49 | 52.50082 | 5.54059 | 10205 ft | 274 kts | 240° |
| 2026-04-24 11:50 | 52.49105 | 5.51391 | 9985 ft | 274 kts | 240° |
| 2026-04-24 11:50 | 52.48117 | 5.48696 | 9539 ft | 279 kts | 242° |
| 2026-04-24 11:50 | 52.47108 | 5.45948 | 9166 ft | 282 kts | 240° |
| 2026-04-24 11:50 | 52.46105 | 5.43227 | 8939 ft | 278 kts | 241° |
| 2026-04-24 11:51 | 52.45103 | 5.40510 | 8622 ft | 278 kts | 240° |
| 2026-04-24 11:51 | 52.44105 | 5.37809 | 8349 ft | 276 kts | 241° |
| 2026-04-24 11:51 | 52.43109 | 5.35116 | 8077 ft | 276 kts | 240° |
| 2026-04-24 11:51 | 52.42129 | 5.32469 | 7812 ft | 275 kts | 241° |
| 2026-04-24 11:52 | 52.41136 | 5.29791 | 7529 ft | 275 kts | 241° |
| 2026-04-24 11:52 | 52.40149 | 5.27130 | 7261 ft | 273 kts | 240° |
| 2026-04-24 11:52 | 52.39163 | 5.24479 | 7040 ft | 271 kts | 240° |
| 2026-04-24 11:52 | 52.38185 | 5.21850 | 6800 ft | 271 kts | 241° |
| 2026-04-24 11:53 | 52.37205 | 5.19215 | 6520 ft | 270 kts | 241° |
| 2026-04-24 11:53 | 52.36227 | 5.16591 | 6250 ft | 270 kts | 241° |
| 2026-04-24 11:53 | 52.35251 | 5.13973 | 6004 ft | 269 kts | 241° |
| 2026-04-24 11:53 | 52.34277 | 5.11368 | 5737 ft | 268 kts | 241° |
| 2026-04-24 11:54 | 52.33306 | 5.08774 | 5462 ft | 267 kts | 241° |
| 2026-04-24 11:54 | 52.32337 | 5.06181 | 5214 ft | 267 kts | 241° |
| 2026-04-24 11:54 | 52.31350 | 5.03612 | 4986 ft | 266 kts | 240° |
| 2026-04-24 11:54 | 52.30354 | 5.01065 | 4719 ft | 265 kts | 240° |
| 2026-04-24 11:55 | 52.29389 | 4.98504 | 4501 ft | 264 kts | 241° |
| 2026-04-24 11:55 | 52.28448 | 4.95987 | 4232 ft | 264 kts | 242° |
| 2026-04-24 11:55 | 52.27482 | 4.93388 | 3771 ft | 270 kts | 241° |
| 2026-04-24 11:55 | 52.26511 | 4.90763 | 3478 ft | 270 kts | 242° |
| 2026-04-24 11:56 | 52.25543 | 4.88152 | 3196 ft | 268 kts | 242° |
| 2026-04-24 11:56 | 52.24579 | 4.85556 | 2906 ft | 267 kts | 242° |
| 2026-04-24 11:56 | 52.23617 | 4.82969 | 2700 ft | 267 kts | 242° |
| 2026-04-24 11:56 | 52.22651 | 4.80377 | 2416 ft | 266 kts | 242° |
| 2026-04-24 11:57 | 52.21707 | 4.77833 | 2175 ft | 265 kts | 241° |
| 2026-04-24 11:57 | 52.20759 | 4.75270 | 2113 ft | 264 kts | 243° |
| 2026-04-24 11:57 | 52.19854 | 4.72660 | 1985 ft | 264 kts | 244° |
| 2026-04-24 11:57 | 52.18901 | 4.70135 | 2002 ft | 260 kts | 239° |
| 2026-04-24 11:58 | 52.17924 | 4.67650 | 2005 ft | 263 kts | 240° |
| 2026-04-24 11:58 | 52.16972 | 4.65082 | 1948 ft | 266 kts | 242° |
| 2026-04-24 11:58 | 52.16053 | 4.62492 | 2007 ft | 261 kts | 242° |
| 2026-04-24 11:58 | 52.15094 | 4.59957 | 1949 ft | 266 kts | 240° |
| 2026-04-24 11:59 | 52.14141 | 4.57424 | 1965 ft | 257 kts | 241° |
| 2026-04-24 11:59 | 52.13251 | 4.55046 | 2004 ft | 241 kts | 242° |
| 2026-04-24 11:59 | 52.12384 | 4.52772 | 1965 ft | 223 kts | 242° |
| 2026-04-24 11:59 | 52.11921 | 4.50572 | 1972 ft | 197 kts | 274° |
| 2026-04-24 12:00 | 52.12314 | 4.48626 | 1976 ft | 175 kts | 315° |
| 2026-04-24 12:00 | 52.13326 | 4.47708 | 1977 ft | 168 kts | 356° |
| 2026-04-24 12:00 | 52.14428 | 4.48170 | 2002 ft | 168 kts | 29° |
| 2026-04-24 12:00 | 52.15433 | 4.49210 | 1974 ft | 174 kts | 31° |
| 2026-04-24 12:01 | 52.16436 | 4.50321 | 1984 ft | 176 kts | 32° |
| 2026-04-24 12:01 | 52.17445 | 4.51452 | 1979 ft | 175 kts | 33° |
| 2026-04-24 12:01 | 52.18435 | 4.52565 | 1980 ft | 172 kts | 32° |
| 2026-04-24 12:01 | 52.19414 | 4.53667 | 1958 ft | 171 kts | 32° |
| 2026-04-24 12:02 | 52.20374 | 4.54758 | 1983 ft | 171 kts | 32° |
| 2026-04-24 12:02 | 52.21352 | 4.55888 | 1980 ft | 173 kts | 32° |
| 2026-04-24 12:02 | 52.22341 | 4.57022 | 1992 ft | 176 kts | 31° |
| 2026-04-24 12:02 | 52.23353 | 4.58164 | 1973 ft | 175 kts | 32° |
| 2026-04-24 12:03 | 52.24345 | 4.59291 | 2000 ft | 174 kts | 32° |
| 2026-04-24 12:03 | 52.25450 | 4.59956 | 1971 ft | 169 kts | 358° |
| 2026-04-24 12:03 | 52.26542 | 4.59353 | 2015 ft | 169 kts | 334° |
| 2026-04-24 12:03 | 52.27572 | 4.58383 | 1981 ft | 171 kts | 332° |
| 2026-04-24 12:04 | 52.28616 | 4.57394 | 1994 ft | 175 kts | 333° |
| 2026-04-24 12:04 | 52.29679 | 4.56400 | 1983 ft | 176 kts | 330° |
| 2026-04-24 12:04 | 52.30724 | 4.55366 | 1985 ft | 175 kts | 332° |
| 2026-04-24 12:04 | 52.31779 | 4.54375 | 1992 ft | 174 kts | 333° |
| 2026-04-24 12:05 | 52.32835 | 4.53386 | 1977 ft | 176 kts | 332° |
| 2026-04-24 12:05 | 52.33822 | 4.52243 | 1976 ft | 177 kts | 312° |
| 2026-04-24 12:05 | 52.34230 | 4.50352 | 2001 ft | 185 kts | 272° |
| 2026-04-24 12:05 | 52.34024 | 4.48266 | 1996 ft | 184 kts | 263° |
| 2026-04-24 12:06 | 52.33764 | 4.46249 | 1978 ft | 183 kts | 263° |
| 2026-04-24 12:06 | 52.33499 | 4.44202 | 1998 ft | 186 kts | 262° |
| 2026-04-24 12:06 | 52.33230 | 4.42108 | 1989 ft | 189 kts | 263° |
| 2026-04-24 12:06 | 52.32740 | 4.40111 | 1976 ft | 194 kts | 234° |
| 2026-04-24 12:07 | 52.31604 | 4.38988 | 1973 ft | 197 kts | 186° |
| 2026-04-24 12:07 | 52.30319 | 4.39549 | 2021 ft | 195 kts | 144° |
| 2026-04-24 12:07 | 52.29168 | 4.40785 | 1992 ft | 199 kts | 144° |